Time;durP1;ratioP1;P1;durP2;ratioP2;P2;SDS_P1;SDS_P2;PMS_P1;PMS_P2;Temp;Humidity;BMP_temperature;BMP_pressure;BME280_temperature;BME280_humidity;BME280_pressure;Samples;Min_cycle;Max_cycle;Signal;HPM_P1;HPM_P2
2024/01/04 00:02:36;;;;;;;;;;;8.40;99.90;;;;;;8442558;28;20086;-76
2024/01/04 00:06:41;;;;;;;;;;;8.40;99.90;;;;;;8425294;28;20100;-76
2024/01/04 00:10:43;;;;;;;;;;;8.40;99.90;;;;;;8439683;28;19924;-76
2024/01/04 00:14:45;;;;;;;;;;;8.40;99.90;;;;;;8431779;28;19932;-76
2024/01/04 00:18:46;;;;;;;;;;;8.40;99.90;;;;;;8433243;28;19935;-76
2024/01/04 00:22:48;;;;;;;;;;;8.40;99.90;;;;;;8420346;28;19928;-76
2024/01/04 00:26:50;;;;;;;;;;;8.40;99.90;;;;;;8441535;28;19935;-76
2024/01/04 00:30:52;;;;;;;;;;;8.40;99.90;;;;;;8440284;28;19950;-76
2024/01/04 00:34:53;;;;;;;;;;;8.40;99.90;;;;;;8451687;28;19924;-76
2024/01/04 00:38:55;;;;;;;;;;;8.30;99.90;;;;;;8420645;28;19924;-76
2024/01/04 00:42:57;;;;;;;;;;;8.30;99.90;;;;;;8443989;28;20294;-76
2024/01/04 00:46:59;;;;;;;;;;;8.30;99.90;;;;;;8444833;28;19969;-76
2024/01/04 00:51:01;;;;;;;;;;;8.30;99.90;;;;;;8444896;28;19928;-76
2024/01/04 00:55:03;;;;;;;;;;;8.30;99.90;;;;;;8422585;28;19924;-76
2024/01/04 00:59:05;;;;;;;;;;;8.30;99.90;;;;;;8435601;28;19959;-76
2024/01/04 01:03:07;;;;;;;;;;;8.20;99.90;;;;;;8439857;28;19924;-76
2024/01/04 01:07:08;;;;;;;;;;;8.30;99.90;;;;;;8434179;28;20364;-76
2024/01/04 01:11:10;;;;;;;;;;;8.30;99.90;;;;;;8416633;28;19928;-76
2024/01/04 01:15:12;;;;;;;;;;;8.30;99.90;;;;;;8429450;28;19924;-76
2024/01/04 01:19:13;;;;;;;;;;;8.30;99.90;;;;;;8443115;28;19981;-76
2024/01/04 01:23:16;;;;;;;;;;;8.30;99.90;;;;;;8438505;28;19924;-76
2024/01/04 01:27:18;;;;;;;;;;;8.30;99.90;;;;;;8443167;28;19924;-76
2024/01/04 01:31:19;;;;;;;;;;;8.30;99.90;;;;;;8442292;28;20441;-76
2024/01/04 01:35:22;;;;;;;;;;;8.30;99.90;;;;;;8437209;28;19923;-76
2024/01/04 01:39:24;;;;;;;;;;;8.30;99.90;;;;;;8434935;28;20264;-75
2024/01/04 01:43:26;;;;;;;;;;;8.30;99.90;;;;;;8437573;28;19925;-76
2024/01/04 01:47:28;;;;;;;;;;;8.30;99.90;;;;;;8432536;28;19944;-76
2024/01/04 01:51:30;;;;;;;;;;;8.30;99.90;;;;;;8418428;28;19945;-76
2024/01/04 01:55:32;;;;;;;;;;;8.30;99.90;;;;;;8427415;28;19935;-76
2024/01/04 01:59:33;;;;;;;;;;;8.30;99.90;;;;;;8432963;28;19939;-76
2024/01/04 02:03:35;;;;;;;;;;;8.30;99.90;;;;;;8433365;28;19970;-76
2024/01/04 02:07:37;;;;;;;;;;;8.30;99.90;;;;;;8418153;28;20376;-76
2024/01/04 02:11:40;;;;;;;;;;;8.20;99.90;;;;;;8424260;28;20329;-75
2024/01/04 02:15:42;;;;;;;;;;;8.20;99.90;;;;;;8441140;28;19924;-75
2024/01/04 02:19:44;;;;;;;;;;;8.20;99.90;;;;;;8430153;28;20360;-75
2024/01/04 02:23:46;;;;;;;;;;;8.10;99.90;;;;;;8441229;28;20357;-76
2024/01/04 02:27:48;;;;;;;;;;;8.20;99.90;;;;;;8439557;28;19969;-75
2024/01/04 02:31:50;;;;;;;;;;;8.20;99.90;;;;;;8438840;28;19932;-75
2024/01/04 02:35:51;;;;;;;;;;;8.20;99.90;;;;;;8414868;28;20371;-75
2024/01/04 02:39:53;;;;;;;;;;;8.20;99.90;;;;;;8438390;28;19977;-75
2024/01/04 02:43:55;;;;;;;;;;;8.20;99.90;;;;;;8430092;28;20296;-76
2024/01/04 02:47:56;;;;;;;;;;;8.20;99.90;;;;;;8431786;28;20007;-76
2024/01/04 02:51:58;;;;;;;;;;;8.20;99.90;;;;;;8444239;28;20011;-76
2024/01/04 02:56:00;;;;;;;;;;;8.20;99.90;;;;;;8414728;28;19924;-75
2024/01/04 03:00:02;;;;;;;;;;;8.20;99.90;;;;;;8430296;28;19928;-75
2024/01/04 03:04:04;;;;;;;;;;;8.20;99.90;;;;;;8411011;28;20509;-76
2024/01/04 03:08:06;;;;;;;;;;;8.10;99.90;;;;;;8440325;28;20258;-76
2024/01/04 03:12:08;;;;;;;;;;;8.10;99.90;;;;;;8426872;28;19935;-75
2024/01/04 03:16:10;;;;;;;;;;;8.10;99.90;;;;;;8432201;28;19967;-76
2024/01/04 03:20:12;;;;;;;;;;;8.10;99.90;;;;;;8418119;28;19974;-76
2024/01/04 03:24:13;;;;;;;;;;;8.10;99.90;;;;;;8426427;28;20299;-76
2024/01/04 03:28:15;;;;;;;;;;;8.00;99.90;;;;;;8433660;28;19924;-76
2024/01/04 03:32:17;;;;;;;;;;;8.00;99.90;;;;;;8421733;28;19924;-75
2024/01/04 03:36:18;;;;;;;;;;;8.00;99.90;;;;;;8440199;28;19924;-76
2024/01/04 03:40:20;;;;;;;;;;;8.00;99.90;;;;;;8438817;28;19924;-76
2024/01/04 03:44:22;;;;;;;;;;;8.00;99.90;;;;;;8430337;28;20337;-76
2024/01/04 03:48:24;;;;;;;;;;;8.00;99.90;;;;;;8431818;28;19931;-76
2024/01/04 03:52:26;;;;;;;;;;;8.00;99.90;;;;;;8433419;28;19924;-76
2024/01/04 03:56:27;;;;;;;;;;;8.00;99.90;;;;;;8415888;28;19936;-76
2024/01/04 04:00:29;;;;;;;;;;;8.00;99.90;;;;;;8432405;28;19924;-76
2024/01/04 04:04:31;;;;;;;;;;;8.00;99.90;;;;;;8435024;28;19924;-76
2024/01/04 04:08:32;;;;;;;;;;;8.00;99.90;;;;;;8423767;28;20421;-76
2024/01/04 04:12:34;;;;;;;;;;;8.00;99.90;;;;;;8430537;28;19924;-76
2024/01/04 04:16:40;;;;;;;;;;;8.00;99.90;;;;;;8438290;28;19946;-76
2024/01/04 04:20:42;;;;;;;;;;;7.90;99.90;;;;;;8425296;28;19931;-76
2024/01/04 04:24:44;;;;;;;;;;;8.00;99.90;;;;;;8409029;28;19932;-76
2024/01/04 04:28:45;;;;;;;;;;;7.90;99.90;;;;;;8431777;28;19924;-76
2024/01/04 04:32:47;;;;;;;;;;;8.00;99.90;;;;;;8413508;28;20287;-76
2024/01/04 04:36:49;;;;;;;;;;;7.90;99.90;;;;;;8432165;28;19925;-76
2024/01/04 04:40:51;;;;;;;;;;;7.90;99.90;;;;;;8415594;28;20440;-76
2024/01/04 04:44:53;;;;;;;;;;;8.00;99.90;;;;;;8429571;28;19924;-76
2024/01/04 04:48:56;;;;;;;;;;;7.90;99.90;;;;;;8413085;28;19931;-75
2024/01/04 04:52:58;;;;;;;;;;;8.00;99.90;;;;;;8441703;28;20450;-76
2024/01/04 04:57:00;;;;;;;;;;;8.00;99.90;;;;;;8433311;28;19928;-76
2024/01/04 05:01:02;;;;;;;;;;;8.00;99.90;;;;;;8435983;28;19981;-75
2024/01/04 05:05:04;;;;;;;;;;;8.10;99.90;;;;;;8433516;28;19981;-75
2024/01/04 05:09:07;;;;;;;;;;;8.10;99.90;;;;;;8426738;28;19925;-75
2024/01/04 05:13:09;;;;;;;;;;;8.10;99.90;;;;;;8429704;28;19935;-75
2024/01/04 05:17:11;;;;;;;;;;;8.00;99.90;;;;;;8436312;28;19938;-76
2024/01/04 05:21:12;;;;;;;;;;;8.00;99.90;;;;;;8444208;28;19927;-76
2024/01/04 05:25:14;;;;;;;;;;;8.10;99.90;;;;;;8440276;28;19924;-76
2024/01/04 05:29:16;;;;;;;;;;;8.10;99.90;;;;;;8434970;28;19953;-75
2024/01/04 05:33:18;;;;;;;;;;;8.10;99.90;;;;;;8439039;28;20026;-76
2024/01/04 05:37:20;;;;;;;;;;;8.10;99.90;;;;;;8418319;28;19931;-76
2024/01/04 05:41:22;;;;;;;;;;;8.10;99.90;;;;;;8439748;28;19946;-75
2024/01/04 05:45:24;;;;;;;;;;;8.10;99.90;;;;;;8435408;28;19931;-75
2024/01/04 05:49:26;;;;;;;;;;;8.10;99.90;;;;;;8416345;28;20110;-75
2024/01/04 05:53:28;;;;;;;;;;;8.10;99.90;;;;;;8420297;28;19973;-75
2024/01/04 05:57:30;;;;;;;;;;;8.10;99.90;;;;;;8435883;28;19928;-76
2024/01/04 06:01:32;;;;;;;;;;;8.10;99.90;;;;;;8443954;28;19983;-75
2024/01/04 06:05:34;;;;;;;;;;;8.10;99.90;;;;;;8427584;28;19923;-75
2024/01/04 06:09:36;;;;;;;;;;;8.10;99.90;;;;;;8444154;28;19935;-75
2024/01/04 06:13:38;;;;;;;;;;;8.10;99.90;;;;;;8440465;28;19924;-75
2024/01/04 06:17:39;;;;;;;;;;;8.10;99.90;;;;;;8432479;28;19935;-76
2024/01/04 06:21:41;;;;;;;;;;;8.10;99.90;;;;;;8435822;28;19985;-75
2024/01/04 06:25:43;;;;;;;;;;;8.10;99.90;;;;;;8442221;28;19928;-76
2024/01/04 06:29:45;;;;;;;;;;;8.10;99.90;;;;;;8451736;28;19971;-76
2024/01/04 06:33:46;;;;;;;;;;;8.10;99.90;;;;;;8445418;28;19932;-77
2024/01/04 06:37:48;;;;;;;;;;;8.10;99.90;;;;;;8424046;28;19924;-75
2024/01/04 06:41:50;;;;;;;;;;;8.10;99.90;;;;;;8429510;28;19929;-75
2024/01/04 06:45:52;;;;;;;;;;;8.10;99.90;;;;;;8425278;28;20034;-75
2024/01/04 06:49:53;;;;;;;;;;;8.00;99.90;;;;;;8423663;28;20399;-76
2024/01/04 06:54:04;;;;;;;;;;;8.00;99.90;;;;;;8454489;28;19924;-75
2024/01/04 06:58:07;;;;;;;;;;;8.00;99.90;;;;;;8444142;28;19924;-75
2024/01/04 07:02:09;;;;;;;;;;;8.00;99.90;;;;;;8442322;28;19981;-76
2024/01/04 07:06:11;;;;;;;;;;;8.10;99.90;;;;;;8445443;28;19924;-75
2024/01/04 07:10:13;;;;;;;;;;;8.10;99.90;;;;;;8435447;28;19923;-75
2024/01/04 07:14:15;;;;;;;;;;;8.10;99.90;;;;;;8416626;28;19928;-75
2024/01/04 07:18:17;;;;;;;;;;;8.00;99.90;;;;;;8413438;28;19924;-76
2024/01/04 07:22:20;;;;;;;;;;;8.00;99.90;;;;;;8442520;28;19928;-76
2024/01/04 07:26:21;;;;;;;;;;;8.00;99.90;;;;;;8436818;28;19936;-76
2024/01/04 07:30:23;;;;;;;;;;;8.00;99.90;;;;;;8432305;28;19946;-76
2024/01/04 07:34:26;;;;;;;;;;;8.00;99.90;;;;;;8415289;28;19931;-76
2024/01/04 07:38:28;;;;;;;;;;;8.00;99.90;;;;;;8424221;28;20375;-75
2024/01/04 07:42:29;;;;;;;;;;;8.00;99.90;;;;;;8443727;28;19932;-75
2024/01/04 07:46:31;;;;;;;;;;;8.00;99.90;;;;;;8413437;28;20292;-75
2024/01/04 07:50:33;;;;;;;;;;;8.10;99.90;;;;;;8434404;28;19924;-76
2024/01/04 07:54:34;;;;;;;;;;;8.10;99.90;;;;;;8443864;28;19927;-76
2024/01/04 07:58:43;;;;;;;;;;;8.10;99.90;;;;;;8432150;28;19971;-75
2024/01/04 08:02:45;;;;;;;;;;;8.00;99.90;;;;;;8435561;28;20375;-75
2024/01/04 08:06:50;;;;;;;;;;;8.00;99.90;;;;;;8434223;28;20283;-75
2024/01/04 08:10:51;;;;;;;;;;;8.10;99.90;;;;;;8421349;28;19932;-75
2024/01/04 08:14:54;;;;;;;;;;;8.00;99.90;;;;;;8439403;28;19983;-76
2024/01/04 08:18:55;;;;;;;;;;;8.00;99.90;;;;;;8425624;28;20010;-75
2024/01/04 08:22:58;;;;;;;;;;;8.00;99.90;;;;;;8433016;28;20002;-75
2024/01/04 08:26:59;;;;;;;;;;;8.00;99.90;;;;;;8433213;28;19928;-76
2024/01/04 08:31:01;;;;;;;;;;;8.00;99.90;;;;;;8433435;28;20422;-75
2024/01/04 08:35:05;;;;;;;;;;;8.10;99.90;;;;;;8436633;28;19932;-75
2024/01/04 08:39:07;;;;;;;;;;;8.10;99.90;;;;;;8435805;28;19928;-76
2024/01/04 08:43:09;;;;;;;;;;;8.10;99.90;;;;;;8432723;28;20003;-75
2024/01/04 08:47:10;;;;;;;;;;;8.10;99.90;;;;;;8451917;28;19927;-76
2024/01/04 08:51:12;;;;;;;;;;;8.10;99.90;;;;;;8437037;28;19927;-76
2024/01/04 08:55:14;;;;;;;;;;;8.10;99.90;;;;;;8419075;28;19935;-76
2024/01/04 08:59:15;;;;;;;;;;;8.10;99.90;;;;;;8447291;28;19924;-75
2024/01/04 09:03:18;;;;;;;;;;;8.20;99.90;;;;;;8416818;28;20332;-75
2024/01/04 09:07:19;;;;;;;;;;;8.20;99.90;;;;;;8441109;28;19963;-75
2024/01/04 09:11:21;;;;;;;;;;;8.30;99.90;;;;;;8439294;28;19931;-75
2024/01/04 09:15:25;;;;;;;;;;;8.30;99.90;;;;;;8440137;28;19928;-75
2024/01/04 09:19:26;;;;;;;;;;;8.30;99.90;;;;;;8438194;28;19932;-75
2024/01/04 09:23:30;;;;;;;;;;;8.30;99.90;;;;;;8439349;28;19928;-75
2024/01/04 09:27:31;;;;;;;;;;;8.30;99.90;;;;;;8435499;28;19931;-75
2024/01/04 09:31:33;;;;;;;;;;;8.20;99.90;;;;;;8436736;28;19939;-75
2024/01/04 09:35:35;;;;;;;;;;;8.20;99.90;;;;;;8443653;28;20359;-75
2024/01/04 09:39:39;;;;;;;;;;;8.20;99.90;;;;;;8441052;28;19935;-75
2024/01/04 09:43:41;;;;;;;;;;;8.20;99.90;;;;;;8437482;28;19924;-76
2024/01/04 09:47:43;;;;;;;;;;;8.10;99.90;;;;;;8428539;28;19932;-75
2024/01/04 09:51:47;;;;;;;;;;;8.20;99.90;;;;;;8444944;28;20436;-75
2024/01/04 09:55:49;;;;;;;;;;;8.10;99.90;;;;;;8442254;28;19936;-75
2024/01/04 09:59:52;;;;;;;;;;;8.10;99.90;;;;;;8437979;28;19924;-75
2024/01/04 10:03:54;;;;;;;;;;;8.10;99.90;;;;;;8443834;28;19925;-75
2024/01/04 10:07:59;;;;;;;;;;;8.10;99.90;;;;;;8439657;28;19945;-75
2024/01/04 10:12:02;;;;;;;;;;;8.10;99.90;;;;;;8435928;28;20295;-75
2024/01/04 10:16:05;;;;;;;;;;;8.20;99.90;;;;;;8431462;28;19924;-76
2024/01/04 10:20:08;;;;;;;;;;;8.30;99.90;;;;;;8452885;28;19932;-76
2024/01/04 10:24:13;;;;;;;;;;;8.30;99.90;;;;;;8430232;28;19978;-75
2024/01/04 10:28:19;;;;;;;;;;;8.40;99.90;;;;;;8415177;28;19924;-76
2024/01/04 10:32:20;;;;;;;;;;;8.40;99.90;;;;;;8435992;28;20367;-75
2024/01/04 10:36:22;;;;;;;;;;;8.40;99.90;;;;;;8438818;28;19939;-76
2024/01/04 10:40:25;;;;;;;;;;;8.40;99.90;;;;;;8423256;28;20278;-75
2024/01/04 10:44:33;;;;;;;;;;;8.50;99.90;;;;;;8417025;28;19932;-76
2024/01/04 10:48:35;;;;;;;;;;;8.50;99.90;;;;;;8412542;28;19939;-76
2024/01/04 10:52:38;;;;;;;;;;;8.60;99.90;;;;;;8429484;28;19928;-75
2024/01/04 10:56:40;;;;;;;;;;;8.60;99.90;;;;;;8433007;28;20453;-76
2024/01/04 11:00:42;;;;;;;;;;;8.70;99.90;;;;;;8435881;28;20512;-76
2024/01/04 11:04:44;;;;;;;;;;;8.80;99.90;;;;;;8438403;28;19924;-75
2024/01/04 11:08:47;;;;;;;;;;;8.80;99.90;;;;;;8437915;28;19985;-75
2024/01/04 11:12:49;;;;;;;;;;;8.80;99.90;;;;;;8420867;28;19936;-75
2024/01/04 11:16:53;;;;;;;;;;;8.80;99.90;;;;;;8432832;28;20581;-76
2024/01/04 11:21:03;;;;;;;;;;;8.70;99.90;;;;;;8434932;28;19944;-76
2024/01/04 11:25:07;;;;;;;;;;;8.80;99.90;;;;;;8435367;28;19924;-76
2024/01/04 11:29:10;;;;;;;;;;;8.80;99.90;;;;;;8435547;28;19967;-76
2024/01/04 11:33:13;;;;;;;;;;;8.70;99.90;;;;;;8416591;28;19936;-76
2024/01/04 11:37:19;;;;;;;;;;;8.70;99.90;;;;;;8430958;28;19975;-76
2024/01/04 11:41:29;;;;;;;;;;;8.70;99.90;;;;;;8427249;28;19960;-76
2024/01/04 11:45:32;;;;;;;;;;;9.00;99.90;;;;;;8418451;28;19935;-76
2024/01/04 11:49:35;;;;;;;;;;;9.70;99.90;;;;;;8423093;28;20329;-76
2024/01/04 11:53:37;;;;;;;;;;;9.90;99.90;;;;;;8431103;28;19924;-76
2024/01/04 11:57:39;;;;;;;;;;;10.00;99.90;;;;;;8426693;28;19975;-76
2024/01/04 12:01:42;;;;;;;;;;;10.40;99.90;;;;;;8443251;28;19924;-76
2024/01/04 12:05:44;;;;;;;;;;;10.20;99.90;;;;;;8438415;28;20405;-76
2024/01/04 12:09:54;;;;;;;;;;;9.90;99.90;;;;;;8441112;28;19928;-76
2024/01/04 12:13:56;;;;;;;;;;;9.60;99.90;;;;;;8433053;28;19953;-76
2024/01/04 12:17:59;;;;;;;;;;;9.50;99.90;;;;;;8434615;28;19931;-75
2024/01/04 12:22:01;;;;;;;;;;;9.40;99.90;;;;;;8434911;28;19931;-76
2024/01/04 12:26:04;;;;;;;;;;;9.40;99.90;;;;;;8433135;28;19928;-75
2024/01/04 12:30:06;;;;;;;;;;;9.40;99.90;;;;;;8428957;28;19924;-75
2024/01/04 12:34:08;;;;;;;;;;;9.40;99.90;;;;;;8419017;28;20299;-75
2024/01/04 12:38:10;;;;;;;;;;;9.50;99.90;;;;;;8449424;28;20302;-75
2024/01/04 12:42:12;;;;;;;;;;;9.50;99.90;;;;;;8435377;28;19923;-76
2024/01/04 12:46:18;;;;;;;;;;;9.50;99.90;;;;;;8441812;28;20166;-75
2024/01/04 12:50:19;;;;;;;;;;;9.50;99.90;;;;;;8438487;28;19931;-75
2024/01/04 12:54:21;;;;;;;;;;;9.60;99.90;;;;;;8436011;28;20376;-75
2024/01/04 12:58:23;;;;;;;;;;;9.60;99.90;;;;;;8433827;28;19928;-75
2024/01/04 13:02:25;;;;;;;;;;;9.60;99.90;;;;;;8425058;28;19928;-75
2024/01/04 13:06:27;;;;;;;;;;;9.50;99.90;;;;;;8433974;28;19924;-75
2024/01/04 13:10:30;;;;;;;;;;;9.50;99.90;;;;;;8435828;28;19924;-76
2024/01/04 13:14:32;;;;;;;;;;;9.40;99.90;;;;;;8430942;28;20362;-75
2024/01/04 13:18:34;;;;;;;;;;;9.30;99.90;;;;;;8429063;28;19924;-75
2024/01/04 13:22:36;;;;;;;;;;;9.30;99.90;;;;;;8439224;28;19931;-75
2024/01/04 13:26:39;;;;;;;;;;;9.20;99.90;;;;;;8424524;28;19976;-75
2024/01/04 13:30:44;;;;;;;;;;;9.10;99.90;;;;;;8443581;28;19955;-76
2024/01/04 13:34:46;;;;;;;;;;;8.80;99.90;;;;;;8442302;28;20338;-75
2024/01/04 13:38:49;;;;;;;;;;;8.70;99.90;;;;;;8429675;28;19931;-75
2024/01/04 13:42:50;;;;;;;;;;;8.60;99.90;;;;;;8434797;28;19930;-75
2024/01/04 13:46:52;;;;;;;;;;;8.50;99.90;;;;;;8432394;28;19947;-76
2024/01/04 13:50:55;;;;;;;;;;;8.40;99.90;;;;;;8438389;28;20387;-75
2024/01/04 13:54:57;;;;;;;;;;;8.40;99.90;;;;;;8425250;28;20412;-75
2024/01/04 13:58:58;;;;;;;;;;;8.40;99.90;;;;;;8433419;28;19935;-75
2024/01/04 14:03:03;;;;;;;;;;;8.30;99.90;;;;;;8434571;28;19924;-76
2024/01/04 14:07:05;;;;;;;;;;;8.30;99.90;;;;;;8412200;28;20395;-76
2024/01/04 14:11:07;;;;;;;;;;;8.40;99.90;;;;;;8431549;28;20321;-76
2024/01/04 14:15:09;;;;;;;;;;;8.40;99.90;;;;;;8431666;28;19931;-75
2024/01/04 14:19:11;;;;;;;;;;;8.40;99.90;;;;;;8422883;28;19931;-76
2024/01/04 14:23:12;;;;;;;;;;;8.30;99.90;;;;;;8422791;28;20381;-76
2024/01/04 14:27:14;;;;;;;;;;;8.40;99.90;;;;;;8425021;28;20163;-76
2024/01/04 14:31:16;;;;;;;;;;;8.40;99.90;;;;;;8427698;28;19965;-76
2024/01/04 14:35:19;;;;;;;;;;;8.50;99.90;;;;;;8430692;28;19932;-76
2024/01/04 14:39:21;;;;;;;;;;;8.50;99.90;;;;;;8429501;28;19924;-76
2024/01/04 14:43:23;;;;;;;;;;;8.50;99.90;;;;;;8428270;28;19934;-76
2024/01/04 14:47:25;;;;;;;;;;;8.50;99.90;;;;;;8411321;28;19924;-75
2024/01/04 14:51:27;;;;;;;;;;;8.50;99.90;;;;;;8430908;28;20375;-75
2024/01/04 14:55:31;;;;;;;;;;;8.50;99.90;;;;;;8420784;28;19928;-76
2024/01/04 14:59:32;;;;;;;;;;;8.50;99.90;;;;;;8423848;28;19950;-75
2024/01/04 15:03:36;;;;;;;;;;;8.50;99.90;;;;;;8428550;28;20289;-76
2024/01/04 15:07:38;;;;;;;;;;;8.50;99.90;;;;;;8403890;28;19927;-76
2024/01/04 15:11:40;;;;;;;;;;;8.50;99.90;;;;;;8428252;28;20645;-76
2024/01/04 15:15:42;;;;;;;;;;;8.50;99.90;;;;;;8436584;28;20433;-76
2024/01/04 15:19:43;;;;;;;;;;;8.60;99.90;;;;;;8425413;28;19932;-75
2024/01/04 15:23:45;;;;;;;;;;;8.60;99.90;;;;;;8410592;28;19958;-76
2024/01/04 15:27:47;;;;;;;;;;;8.60;99.90;;;;;;8423655;28;20410;-76
2024/01/04 15:31:49;;;;;;;;;;;8.60;99.90;;;;;;8409410;28;19924;-75
2024/01/04 15:35:51;;;;;;;;;;;8.50;99.90;;;;;;8405996;28;19928;-76
2024/01/04 15:39:52;;;;;;;;;;;8.40;99.90;;;;;;8427262;28;20007;-76
2024/01/04 15:43:56;;;;;;;;;;;8.40;99.90;;;;;;8430568;28;20433;-76
2024/01/04 15:47:58;;;;;;;;;;;8.30;99.90;;;;;;8429438;28;20295;-76
2024/01/04 15:52:00;;;;;;;;;;;8.30;99.90;;;;;;8414656;28;19931;-76
2024/01/04 15:56:01;;;;;;;;;;;8.20;99.90;;;;;;8420422;28;19928;-76
2024/01/04 16:00:03;;;;;;;;;;;8.20;99.90;;;;;;8416016;28;19928;-76
2024/01/04 16:04:07;;;;;;;;;;;8.10;99.90;;;;;;8416353;28;19969;-76
2024/01/04 16:08:08;;;;;;;;;;;8.00;99.90;;;;;;8423890;28;20356;-76
2024/01/04 16:12:10;;;;;;;;;;;8.00;99.90;;;;;;8423873;28;20307;-77
2024/01/04 16:16:12;;;;;;;;;;;7.90;99.90;;;;;;8423164;28;19932;-76
2024/01/04 16:20:13;;;;;;;;;;;7.80;99.90;;;;;;8426918;28;19927;-76
2024/01/04 16:24:26;;;;;;;;;;;7.80;99.90;;;;;;8407143;28;20371;-76
2024/01/04 16:28:28;;;;;;;;;;;7.60;99.90;;;;;;8425210;28;20437;-76
2024/01/04 16:32:30;;;;;;;;;;;7.60;99.90;;;;;;8420611;28;20333;-76
2024/01/04 16:36:32;;;;;;;;;;;7.50;99.90;;;;;;8422831;28;19924;-76
2024/01/04 16:40:33;;;;;;;;;;;7.50;99.90;;;;;;8424781;28;20139;-76
2024/01/04 16:44:36;;;;;;;;;;;7.50;99.90;;;;;;8421044;28;19967;-76
2024/01/04 16:48:39;;;;;;;;;;;7.50;99.90;;;;;;8426811;28;19924;-76
2024/01/04 16:52:40;;;;;;;;;;;7.50;99.90;;;;;;8418871;28;20389;-76
2024/01/04 16:56:42;;;;;;;;;;;7.40;99.90;;;;;;8410571;28;19977;-76
2024/01/04 17:00:44;;;;;;;;;;;7.40;99.90;;;;;;8423506;28;19943;-76
2024/01/04 17:04:46;;;;;;;;;;;7.40;99.90;;;;;;8424372;28;19993;-76
2024/01/04 17:08:48;;;;;;;;;;;7.40;99.90;;;;;;8412613;28;19927;-76
2024/01/04 17:12:49;;;;;;;;;;;7.30;99.90;;;;;;8420104;28;20022;-75
2024/01/04 17:16:51;;;;;;;;;;;7.30;99.90;;;;;;8430402;28;19924;-76
2024/01/04 17:20:53;;;;;;;;;;;7.30;99.90;;;;;;8415819;28;19932;-76
2024/01/04 17:24:54;;;;;;;;;;;7.30;99.90;;;;;;8430582;28;19932;-76
2024/01/04 17:28:56;;;;;;;;;;;7.40;99.90;;;;;;8425549;28;19923;-75
2024/01/04 17:32:58;;;;;;;;;;;7.40;99.90;;;;;;8435626;28;20432;-75
2024/01/04 17:37:00;;;;;;;;;;;7.30;99.90;;;;;;8412620;28;19931;-76
2024/01/04 17:41:02;;;;;;;;;;;7.30;99.90;;;;;;8428776;28;20009;-76
2024/01/04 17:45:04;;;;;;;;;;;7.30;99.90;;;;;;8426305;28;19982;-76
2024/01/04 17:49:06;;;;;;;;;;;7.20;99.90;;;;;;8432615;28;20349;-76
2024/01/04 17:53:09;;;;;;;;;;;7.10;99.90;;;;;;8426427;28;19932;-76
2024/01/04 17:57:13;;;;;;;;;;;7.00;99.90;;;;;;8424191;28;19931;-76
2024/01/04 18:01:15;;;;;;;;;;;6.90;99.90;;;;;;8426476;28;19931;-76
2024/01/04 18:05:18;;;;;;;;;;;6.80;99.90;;;;;;8408458;28;19982;-76
2024/01/04 18:09:20;;;;;;;;;;;6.80;99.90;;;;;;8413531;28;19936;-76
2024/01/04 18:13:22;;;;;;;;;;;6.70;99.90;;;;;;8416140;28;19939;-76
2024/01/04 18:17:25;;;;;;;;;;;6.70;99.90;;;;;;8407615;28;19928;-76
2024/01/04 18:21:27;;;;;;;;;;;6.70;99.90;;;;;;8428101;28;20007;-76
2024/01/04 18:25:29;;;;;;;;;;;6.70;99.90;;;;;;8423393;28;19931;-76
2024/01/04 18:29:30;;;;;;;;;;;6.60;99.90;;;;;;8429993;28;19935;-76
2024/01/04 18:33:32;;;;;;;;;;;6.60;99.90;;;;;;8427324;28;19928;-76
2024/01/04 18:37:34;;;;;;;;;;;6.60;99.90;;;;;;8427169;28;20382;-76
2024/01/04 18:41:35;;;;;;;;;;;6.60;99.90;;;;;;8435014;28;20044;-76
2024/01/04 18:45:37;;;;;;;;;;;6.60;99.90;;;;;;8423834;28;19928;-76
2024/01/04 18:49:39;;;;;;;;;;;6.70;99.90;;;;;;8422367;28;19931;-76
2024/01/04 18:53:42;;;;;;;;;;;6.70;99.90;;;;;;8410543;28;19928;-76
2024/01/04 18:57:43;;;;;;;;;;;6.80;99.90;;;;;;8406301;28;19936;-76
2024/01/04 19:01:45;;;;;;;;;;;6.80;99.90;;;;;;8424276;28;19932;-76
2024/01/04 19:05:47;;;;;;;;;;;6.80;99.90;;;;;;8421911;28;19928;-76
2024/01/04 19:09:49;;;;;;;;;;;6.90;99.90;;;;;;8424562;28;20379;-76
2024/01/04 19:13:52;;;;;;;;;;;7.00;99.90;;;;;;8406069;28;19939;-76
2024/01/04 19:17:54;;;;;;;;;;;7.00;99.90;;;;;;8421597;28;19939;-76
2024/01/04 19:21:57;;;;;;;;;;;7.00;99.90;;;;;;8425521;28;19935;-76
2024/01/04 19:25:59;;;;;;;;;;;7.10;99.90;;;;;;8407777;28;20287;-76
2024/01/04 19:30:00;;;;;;;;;;;7.10;99.90;;;;;;8416668;28;19924;-76
2024/01/04 19:34:02;;;;;;;;;;;7.10;99.90;;;;;;8425672;28;19942;-76
2024/01/04 19:38:04;;;;;;;;;;;7.10;99.90;;;;;;8421057;28;20294;-76
2024/01/04 19:42:06;;;;;;;;;;;7.10;99.90;;;;;;8423542;28;19935;-76
2024/01/04 19:46:08;;;;;;;;;;;7.10;99.90;;;;;;8423221;28;20071;-76
2024/01/04 19:50:11;;;;;;;;;;;7.10;99.90;;;;;;8421933;28;20410;-76
2024/01/04 19:54:15;;;;;;;;;;;7.10;99.90;;;;;;8403238;28;19924;-76
2024/01/04 19:58:16;;;;;;;;;;;7.10;99.90;;;;;;8421747;28;20371;-76
2024/01/04 20:02:18;;;;;;;;;;;7.10;99.90;;;;;;8424467;28;20401;-76
2024/01/04 20:06:20;;;;;;;;;;;7.10;99.90;;;;;;8425608;28;20414;-76
2024/01/04 20:10:22;;;;;;;;;;;7.10;99.90;;;;;;8421281;28;20020;-76
2024/01/04 20:14:25;;;;;;;;;;;7.10;99.90;;;;;;8422556;28;19932;-76
2024/01/04 20:18:27;;;;;;;;;;;7.10;99.90;;;;;;8423003;28;19928;-76
2024/01/04 20:22:29;;;;;;;;;;;7.20;99.90;;;;;;8425312;28;19943;-76
2024/01/04 20:26:32;;;;;;;;;;;7.20;99.90;;;;;;8422990;28;19945;-76
2024/01/04 20:30:33;;;;;;;;;;;7.20;99.90;;;;;;8428028;28;19980;-76
2024/01/04 20:34:35;;;;;;;;;;;7.20;99.90;;;;;;8424188;28;19928;-76
2024/01/04 20:38:37;;;;;;;;;;;7.20;99.90;;;;;;8425090;28;19950;-76
2024/01/04 20:42:39;;;;;;;;;;;7.30;99.90;;;;;;8421559;28;19939;-76
2024/01/04 20:46:41;;;;;;;;;;;7.30;99.90;;;;;;8432586;28;19928;-76
2024/01/04 21:05:59;;;;;;;;;;;7.30;99.90;;;;;;8406065;28;20004;-76
2024/01/04 21:20:07;;;;;;;;;;;7.40;99.90;;;;;;8426921;28;19923;-76
2024/01/04 21:24:10;;;;;;;;;;;7.40;99.90;;;;;;8428586;28;19975;-76
2024/01/04 21:28:11;;;;;;;;;;;7.40;99.90;;;;;;8426443;28;20294;-76
2024/01/04 21:32:13;;;;;;;;;;;7.40;99.90;;;;;;8430855;28;19924;-76
2024/01/04 21:36:15;;;;;;;;;;;7.40;99.90;;;;;;8426139;28;19951;-76
2024/01/04 21:40:17;;;;;;;;;;;7.50;99.90;;;;;;8428997;28;19935;-76
2024/01/04 21:44:19;;;;;;;;;;;7.50;99.90;;;;;;8410705;28;19951;-76
2024/01/04 21:48:21;;;;;;;;;;;7.50;99.90;;;;;;8428217;28;19932;-76
2024/01/04 22:07:33;;;;;;;;;;;7.50;99.90;;;;;;8418913;28;19950;-77
2024/01/04 22:16:17;;;;;;;;;;;7.50;99.90;;;;;;8441057;28;19996;-76
2024/01/04 22:20:19;;;;;;;;;;;7.60;99.90;;;;;;8445696;28;19924;-76
2024/01/04 22:24:20;;;;;;;;;;;7.60;99.90;;;;;;8441337;28;19932;-76
2024/01/04 22:28:22;;;;;;;;;;;7.60;99.90;;;;;;8420405;28;19923;-76
2024/01/04 22:32:24;;;;;;;;;;;7.60;99.90;;;;;;8442346;28;19924;-76
2024/01/04 22:36:26;;;;;;;;;;;7.60;99.90;;;;;;8422365;28;19970;-76
2024/01/04 22:40:27;;;;;;;;;;;7.60;99.90;;;;;;8444133;28;19924;-76
2024/01/04 22:44:29;;;;;;;;;;;7.60;99.90;;;;;;8441544;28;19970;-76
2024/01/04 22:48:31;;;;;;;;;;;7.70;99.90;;;;;;8420755;28;20358;-76
2024/01/04 22:52:32;;;;;;;;;;;7.70;99.90;;;;;;8440564;28;19928;-76
2024/01/04 22:56:34;;;;;;;;;;;7.70;99.90;;;;;;8441393;28;19939;-76
2024/01/04 23:00:38;;;;;;;;;;;7.70;99.90;;;;;;8419492;28;20650;-77
2024/01/04 23:04:40;;;;;;;;;;;7.70;99.90;;;;;;8432020;28;19989;-77
2024/01/04 23:08:41;;;;;;;;;;;7.70;99.90;;;;;;8418697;28;19925;-76
2024/01/04 23:12:45;;;;;;;;;;;7.70;99.90;;;;;;8439333;28;19932;-76
2024/01/04 23:16:47;;;;;;;;;;;7.70;99.90;;;;;;8424509;28;19931;-76
2024/01/04 23:20:49;;;;;;;;;;;7.80;99.90;;;;;;8443195;28;19931;-76
2024/01/04 23:24:50;;;;;;;;;;;7.80;99.90;;;;;;8434591;28;19928;-76
2024/01/04 23:28:52;;;;;;;;;;;7.80;99.90;;;;;;8438564;28;19924;-76
2024/01/04 23:32:54;;;;;;;;;;;7.80;99.90;;;;;;8444046;28;19931;-76
2024/01/04 23:36:55;;;;;;;;;;;7.80;99.90;;;;;;8418481;28;19930;-76
2024/01/04 23:40:57;;;;;;;;;;;7.90;99.90;;;;;;8435095;28;20136;-76
2024/01/04 23:44:58;;;;;;;;;;;7.80;99.90;;;;;;8447617;28;19967;-76
2024/01/04 23:49:01;;;;;;;;;;;7.90;99.90;;;;;;8445953;28;20313;-75
2024/01/04 23:53:03;;;;;;;;;;;7.80;99.90;;;;;;8416536;28;19936;-76
2024/01/04 23:57:05;;;;;;;;;;;7.80;99.90;;;;;;8416710;28;19940;-76
